Time;durP1;ratioP1;P1;durP2;ratioP2;P2;SDS_P1;SDS_P2;PMS_P1;PMS_P2;Temp;Humidity;BMP_temperature;BMP_pressure;BME280_temperature;BME280_humidity;BME280_pressure;Samples;Min_cycle;Max_cycle;Signal;HPM_P1;HPM_P2
2022/12/28 00:00:02;;;;;;;11.50;6.40;;;;;;;3.68;83.38;101208.58;108971;1257;37052;-77
2022/12/28 00:02:41;;;;;;;10.70;6.00;;;;;;;3.67;83.28;101207.89;108841;1256;37159;-76
2022/12/28 00:05:18;;;;;;;11.00;5.60;;;;;;;3.66;83.16;101205.81;108914;1273;36315;-77
2022/12/28 00:07:55;;;;;;;11.60;5.90;;;;;;;3.67;83.02;101208.75;108909;1270;37456;-75
2022/12/28 00:10:30;;;;;;;13.00;5.10;;;;;;;3.68;83.37;101203.90;108904;1251;37432;-76
2022/12/28 00:13:05;;;;;;;13.20;5.90;;;;;;;3.72;83.28;101205.14;108819;1264;174598;-76
2022/12/28 00:15:42;;;;;;;12.60;6.10;;;;;;;3.70;83.10;101199.77;108880;1251;37333;-76
2022/12/28 00:18:20;;;;;;;13.10;6.60;;;;;;;3.70;83.14;101202.55;108888;1273;38341;-75
2022/12/28 00:21:04;;;;;;;10.70;5.30;;;;;;;3.66;82.93;101200.64;108894;1254;37109;-76
2022/12/28 00:23:44;;;;;;;12.70;5.90;;;;;;;3.63;83.08;101197.52;108883;1273;37303;-76
2022/12/28 00:26:20;;;;;;;14.90;5.80;;;;;;;3.61;82.83;101204.75;108877;1265;36803;-74
2022/12/28 00:28:56;;;;;;;8.90;5.10;;;;;;;3.60;82.80;101203.02;108838;1273;36531;-76
2022/12/28 00:31:33;;;;;;;13.10;6.40;;;;;;;3.59;82.89;101205.43;108900;1264;38366;-76
2022/12/28 00:34:07;;;;;;;12.70;5.50;;;;;;;3.56;82.92;101203.17;108863;1273;37332;-75
2022/12/28 00:36:42;;;;;;;14.00;5.90;;;;;;;3.56;82.99;101205.59;108928;1273;36936;-75
2022/12/28 00:39:20;;;;;;;8.80;5.20;;;;;;;3.56;83.15;101204.73;108898;1273;37110;-76
2022/12/28 00:41:56;;;;;;;11.80;6.20;;;;;;;3.56;83.04;101210.26;108926;1263;37041;-75
2022/12/28 00:44:31;;;;;;;11.00;5.70;;;;;;;3.57;82.98;101210.08;108193;1273;911744;-76
2022/12/28 00:47:05;;;;;;;12.20;5.70;;;;;;;3.55;82.91;101212.66;108913;1273;38559;-77
2022/12/28 00:49:40;;;;;;;12.60;5.50;;;;;;;3.53;82.92;101212.14;108847;1257;37217;-75
2022/12/28 00:52:17;;;;;;;14.10;5.50;;;;;;;3.53;83.43;101220.93;108890;1273;37305;-76
2022/12/28 00:54:54;;;;;;;11.00;5.30;;;;;;;3.53;82.98;101219.55;108831;1263;37499;-75
2022/12/28 00:57:28;;;;;;;12.00;5.30;;;;;;;3.52;83.16;101223.00;108859;1261;38006;-74
2022/12/28 01:00:04;;;;;;;11.40;5.50;;;;;;;3.52;83.13;101224.04;108863;1268;37338;-75
2022/12/28 01:02:39;;;;;;;12.10;5.40;;;;;;;3.49;83.07;101228.52;108864;1273;36987;-77
2022/12/28 01:05:19;;;;;;;11.00;5.50;;;;;;;3.47;83.22;101223.66;108912;1273;38521;-78
2022/12/28 01:08:00;;;;;;;14.30;5.80;;;;;;;3.46;83.03;101221.08;108896;1251;37301;-75
2022/12/28 01:10:35;;;;;;;13.70;5.20;;;;;;;3.44;82.82;101222.80;108881;1266;36125;-78
2022/12/28 01:13:15;;;;;;;9.00;5.20;;;;;;;3.41;83.08;101220.02;108828;1256;38460;-77
2022/12/28 01:15:53;;;;;;;10.10;5.40;;;;;;;3.38;82.92;101216.04;108891;1263;38274;-76
2022/12/28 01:18:28;;;;;;;10.10;4.80;;;;;;;3.35;82.92;101217.91;108959;1259;36975;-77
2022/12/28 01:21:02;;;;;;;11.50;5.20;;;;;;;3.31;82.82;101214.62;108846;1254;37082;-78
2022/12/28 01:23:37;;;;;;;12.40;5.40;;;;;;;3.29;83.14;101214.09;108914;1273;37550;-78
2022/12/28 01:26:13;;;;;;;9.00;5.40;;;;;;;3.27;82.99;101217.17;108930;1273;37073;-76
2022/12/28 01:28:47;;;;;;;14.40;5.00;;;;;;;3.24;83.16;101214.42;108853;1250;36942;-77
2022/12/28 01:31:23;;;;;;;8.50;4.70;;;;;;;3.21;83.12;101211.63;108205;1273;911506;-75
2022/12/28 01:33:58;;;;;;;11.40;5.00;;;;;;;3.21;83.17;101206.48;108928;1250;36984;-74
2022/12/28 01:36:35;;;;;;;9.10;5.00;;;;;;;3.23;83.40;101205.44;108840;1259;40095;-74
2022/12/28 01:39:10;;;;;;;8.40;5.30;;;;;;;3.28;83.48;101210.29;108860;1273;37439;-75
2022/12/28 01:41:48;;;;;;;10.50;5.40;;;;;;;3.27;83.16;101203.05;108893;1260;37071;-76
2022/12/28 01:44:55;;;;;;;11.40;5.70;;;;;;;3.27;83.36;101202.53;108885;1273;37069;-76
2022/12/28 01:47:32;;;;;;;11.50;5.40;;;;;;;3.25;83.64;101201.83;108900;1273;37081;-76
2022/12/28 01:50:25;;;;;;;10.90;5.10;;;;;;;3.23;83.29;101199.75;108929;1273;37117;-75
2022/12/28 01:53:04;;;;;;;9.60;5.20;;;;;;;3.21;83.43;101203.53;108855;1254;37101;-77
2022/12/28 01:55:42;;;;;;;11.50;5.50;;;;;;;3.19;83.37;101205.08;108833;1267;37539;-77
2022/12/28 01:58:21;;;;;;;11.40;5.80;;;;;;;3.15;83.54;101205.91;108866;1251;37155;-78
2022/12/28 02:00:58;;;;;;;10.60;5.50;;;;;;;3.10;83.59;101207.61;108905;1260;38590;-75
2022/12/28 02:03:33;;;;;;;11.30;5.30;;;;;;;3.03;83.09;101208.25;108881;1261;36979;-73
2022/12/28 02:06:11;;;;;;;9.10;4.90;;;;;;;3.00;83.44;101207.20;108816;1254;35988;-76
2022/12/28 02:08:49;;;;;;;11.30;6.10;;;;;;;2.99;83.42;101209.77;108866;1263;37452;-78
2022/12/28 02:11:25;;;;;;;11.60;6.20;;;;;;;2.97;83.39;101210.45;108786;1260;37243;-75
2022/12/28 02:14:03;;;;;;;13.70;6.40;;;;;;;2.91;83.43;101207.31;108925;1254;38349;-77
2022/12/28 02:16:41;;;;;;;9.70;5.60;;;;;;;2.84;83.35;101207.61;108880;1267;37294;-77
2022/12/28 02:19:18;;;;;;;9.60;5.00;;;;;;;2.78;83.50;101202.56;108856;1267;36955;-77
2022/12/28 02:22:07;;;;;;;11.80;6.50;;;;;;;2.72;83.75;101198.73;108908;1259;37082;-74
2022/12/28 02:25:25;;;;;;;10.80;5.30;;;;;;;2.65;83.53;101190.06;108839;1251;37423;-73
2022/12/28 02:28:08;;;;;;;13.50;6.10;;;;;;;2.54;83.71;101186.71;108833;1273;37231;-76
2022/12/28 02:30:47;;;;;;;15.90;6.20;;;;;;;2.45;83.51;101184.23;108867;1251;37854;-75
2022/12/28 02:33:27;;;;;;;8.60;5.70;;;;;;;2.34;83.49;101180.70;108878;1273;37201;-76
2022/12/28 02:36:12;;;;;;;10.60;5.50;;;;;;;2.25;83.71;101182.68;108912;1250;36466;-77
2022/12/28 02:38:50;;;;;;;14.70;6.40;;;;;;;2.16;83.76;101182.59;108862;1273;36195;-77
2022/12/28 02:41:28;;;;;;;11.20;6.30;;;;;;;2.10;84.13;101182.54;108901;1263;36974;-76
2022/12/28 02:44:05;;;;;;;12.10;7.30;;;;;;;2.04;84.16;101184.04;108832;1253;38429;-76
2022/12/28 02:52:31;;;;;;;8.80;5.70;;;;;;;1.81;84.37;101184.31;108895;1260;38270;-75
2022/12/28 02:58:30;;;;;;;15.70;7.60;;;;;;;1.68;84.92;101179.86;108882;1251;37211;-75
2022/12/28 03:01:12;;;;;;;;;;;;;;;1.59;84.86;101183.73;108898;1270;38673;-77
2022/12/28 03:03:58;;;;;;;14.10;7.70;;;;;;;1.49;85.18;101178.78;108829;1266;37151;-77
2022/12/28 03:09:31;;;;;;;;;;;;;;;1.44;85.58;101184.73;108916;1260;36960;-76
2022/12/28 03:12:09;;;;;;;13.70;7.10;;;;;;;1.40;85.87;101191.58;108871;1273;37031;-74
2022/12/28 03:14:55;;;;;;;12.20;6.80;;;;;;;1.37;85.79;101185.69;108930;1263;36338;-77
2022/12/28 03:32:02;;;;;;;14.20;7.70;;;;;;;1.21;86.53;101181.54;108894;1261;37054;-75
2022/12/28 03:34:43;;;;;;;14.70;7.40;;;;;;;1.23;86.86;101180.52;108864;1262;37060;-74
2022/12/28 03:37:24;;;;;;;11.70;6.70;;;;;;;1.26;87.09;101179.02;108893;1273;35990;-75
2022/12/28 03:40:06;;;;;;;12.20;6.50;;;;;;;1.33;87.20;101174.98;108824;1273;36700;-75
2022/12/28 03:45:51;;;;;;;11.70;6.90;;;;;;;1.46;87.23;101166.19;108801;1273;37005;-74
2022/12/28 03:48:30;;;;;;;14.80;8.10;;;;;;;1.47;87.16;101163.46;108888;1254;38657;-74
2022/12/28 03:51:08;;;;;;;15.10;7.20;;;;;;;1.51;87.32;101160.76;108792;1259;37324;-76
2022/12/28 03:53:46;;;;;;;10.90;6.60;;;;;;;1.52;87.20;101153.55;108821;1273;37958;-77
2022/12/28 03:56:28;;;;;;;10.70;6.10;;;;;;;1.53;87.16;101147.72;108855;1273;37070;-74
2022/12/28 03:59:03;;;;;;;12.60;6.70;;;;;;;1.55;87.15;101135.18;108820;1273;36992;-75
2022/12/28 04:01:45;;;;;;;12.30;6.70;;;;;;;1.58;87.07;101124.70;108771;1253;38935;-75
2022/12/28 04:04:21;;;;;;;13.10;7.00;;;;;;;1.58;87.01;101115.79;108846;1259;37602;-77
2022/12/28 04:07:00;;;;;;;10.60;7.00;;;;;;;1.55;86.90;101111.28;108899;1273;37104;-77
2022/12/28 04:09:36;;;;;;;9.70;6.40;;;;;;;1.50;86.79;101115.70;108826;1267;36932;-75
2022/12/28 04:12:13;;;;;;;10.50;6.40;;;;;;;1.45;86.74;101109.45;108909;1273;38412;-76
2022/12/28 04:14:51;;;;;;;10.50;7.00;;;;;;;1.41;86.78;101106.48;108832;1256;37452;-76
2022/12/28 04:17:28;;;;;;;11.60;7.10;;;;;;;1.36;86.84;101114.52;108875;1272;36938;-75
2022/12/28 04:20:07;;;;;;;10.50;6.90;;;;;;;1.28;86.74;101118.88;108850;1254;37183;-75
2022/12/28 04:22:42;;;;;;;12.90;7.80;;;;;;;1.20;86.70;101124.45;108166;1273;913975;-77
2022/12/28 04:25:17;;;;;;;12.30;7.00;;;;;;;1.14;86.67;101125.59;108865;1271;36836;-76
2022/12/28 04:27:52;;;;;;;13.00;7.80;;;;;;;1.07;86.73;101121.71;108840;1273;37070;-75
2022/12/28 04:30:29;;;;;;;12.40;6.80;;;;;;;1.00;86.91;101119.40;108845;1273;38455;-74
2022/12/28 04:33:06;;;;;;;13.80;7.40;;;;;;;0.95;86.89;101118.98;108763;1262;36660;-76
2022/12/28 04:35:46;;;;;;;12.10;7.30;;;;;;;0.91;87.00;101120.98;108832;1273;38329;-76
2022/12/28 04:38:21;;;;;;;13.10;7.00;;;;;;;0.82;87.05;101118.30;108864;1273;38244;-77
2022/12/28 04:40:55;;;;;;;17.80;8.00;;;;;;;0.76;87.12;101122.67;108843;1256;37602;-74
2022/12/28 04:43:32;;;;;;;15.20;7.00;;;;;;;0.68;86.93;101123.95;108834;1251;37142;-75
2022/12/28 04:46:13;;;;;;;12.30;7.10;;;;;;;0.62;86.90;101130.73;108837;1251;37320;-74
2022/12/28 04:48:48;;;;;;;10.60;6.80;;;;;;;0.58;87.16;101133.05;108702;1254;175134;-75
2022/12/28 04:51:27;;;;;;;15.70;8.00;;;;;;;0.54;87.44;101127.68;108847;1255;37317;-75
2022/12/28 04:54:01;;;;;;;13.50;7.50;;;;;;;0.50;87.60;101124.88;108848;1263;37017;-75
2022/12/28 04:56:37;;;;;;;11.80;7.50;;;;;;;0.47;87.70;101120.19;108874;1273;37111;-76
2022/12/28 04:59:11;;;;;;;15.00;7.80;;;;;;;0.44;87.73;101120.00;108846;1273;36098;-75
2022/12/28 05:01:45;;;;;;;13.30;7.20;;;;;;;0.44;88.01;101125.98;108823;1273;38432;-76
2022/12/28 05:04:19;;;;;;;14.50;7.70;;;;;;;0.42;87.97;101116.52;108845;1251;37556;-75
2022/12/28 05:06:56;;;;;;;10.90;7.00;;;;;;;0.38;87.93;101116.80;108875;1254;36176;-74
2022/12/28 05:09:34;;;;;;;13.10;7.60;;;;;;;0.33;88.00;101115.16;108842;1254;36872;-74
2022/12/28 05:12:11;;;;;;;12.40;7.70;;;;;;;0.27;88.03;101118.16;108910;1273;36151;-77
2022/12/28 05:14:53;;;;;;;13.30;7.50;;;;;;;0.27;88.47;101116.79;108938;1265;36961;-75
2022/12/28 05:17:30;;;;;;;14.90;7.60;;;;;;;0.27;88.50;101114.91;108733;1273;175167;-75
2022/12/28 05:20:09;;;;;;;15.60;8.30;;;;;;;0.26;88.53;101113.67;108802;1273;37033;-75
2022/12/28 05:22:47;;;;;;;14.60;7.70;;;;;;;0.21;88.54;101107.09;108879;1273;37055;-76
2022/12/28 05:25:23;;;;;;;15.00;8.80;;;;;;;0.18;88.59;101105.84;108820;1255;36937;-77
2022/12/28 05:27:59;;;;;;;14.50;7.50;;;;;;;0.14;88.43;101109.73;108828;1255;37193;-74
2022/12/28 05:30:37;;;;;;;13.00;8.20;;;;;;;0.13;88.54;101113.14;108836;1254;37305;-74
2022/12/28 05:33:11;;;;;;;15.30;9.10;;;;;;;0.11;88.57;101106.25;108781;1263;187737;-75
2022/12/28 05:35:47;;;;;;;11.00;7.10;;;;;;;0.08;88.48;101107.55;108893;1263;36992;-75
2022/12/28 05:38:22;;;;;;;12.30;7.80;;;;;;;0.04;88.77;101104.92;108915;1254;36730;-76
2022/12/28 05:41:03;;;;;;;10.90;7.80;;;;;;;0.01;88.75;101098.70;108877;1263;36475;-76
2022/12/28 05:43:39;;;;;;;13.10;8.20;;;;;;;-0.01;88.88;101100.22;108804;1250;37051;-76
2022/12/28 05:46:17;;;;;;;14.80;7.80;;;;;;;-0.03;88.85;101100.86;108827;1252;38587;-75
2022/12/28 05:48:53;;;;;;;15.90;8.50;;;;;;;-0.07;88.84;101098.06;108814;1273;36024;-77
2022/12/28 05:51:29;;;;;;;15.10;9.20;;;;;;;-0.08;89.02;101089.98;108776;1273;36983;-75
2022/12/28 05:54:04;;;;;;;14.80;8.70;;;;;;;-0.12;89.05;101081.69;108848;1273;36077;-75
2022/12/28 05:56:38;;;;;;;15.80;9.00;;;;;;;-0.14;89.21;101076.33;108836;1273;36686;-75
2022/12/28 05:59:13;;;;;;;13.60;7.80;;;;;;;-0.15;89.34;101076.82;108875;1254;37307;-76
2022/12/28 06:01:52;;;;;;;14.40;8.00;;;;;;;-0.15;89.38;101081.11;108894;1264;37101;-73
2022/12/28 06:04:27;;;;;;;17.50;9.40;;;;;;;-0.15;89.52;101089.34;108853;1262;37797;-74
2022/12/28 06:07:02;;;;;;;15.00;8.60;;;;;;;-0.15;89.64;101091.91;108868;1266;36431;-76
2022/12/28 06:09:36;;;;;;;13.90;9.50;;;;;;;-0.16;89.70;101084.02;108783;1257;36978;-77
2022/12/28 06:12:11;;;;;;;13.10;8.90;;;;;;;-0.17;89.87;101078.16;108858;1270;37370;-77
2022/12/28 06:14:48;;;;;;;19.00;9.20;;;;;;;-0.16;89.90;101078.69;108668;1250;175166;-76
2022/12/28 06:17:22;;;;;;;13.50;8.50;;;;;;;-0.16;89.78;101080.06;108819;1273;37035;-74
2022/12/28 06:19:59;;;;;;;14.90;9.40;;;;;;;-0.16;89.97;101077.67;108833;1257;36535;-76
2022/12/28 06:22:34;;;;;;;20.10;10.50;;;;;;;-0.18;89.88;101078.50;108819;1273;37603;-75
2022/12/28 06:25:12;;;;;;;19.50;10.80;;;;;;;-0.18;90.00;101082.94;108817;1256;37003;-74
2022/12/28 06:27:47;;;;;;;15.50;9.80;;;;;;;-0.18;90.05;101071.98;108888;1264;37127;-74
2022/12/28 06:30:21;;;;;;;15.60;9.30;;;;;;;-0.16;90.15;101070.27;108827;1273;36600;-76
2022/12/28 06:32:57;;;;;;;17.00;10.10;;;;;;;-0.15;90.24;101074.08;108276;1254;600571;-74
2022/12/28 06:35:35;;;;;;;16.80;10.20;;;;;;;-0.15;90.02;101079.57;108838;1257;37001;-74
2022/12/28 06:38:15;;;;;;;18.20;10.60;;;;;;;-0.15;90.11;101079.05;108860;1256;36243;-76
2022/12/28 06:40:50;;;;;;;18.00;10.50;;;;;;;-0.17;90.18;101075.42;108856;1273;36670;-76
2022/12/28 06:43:27;;;;;;;19.90;10.50;;;;;;;-0.17;90.32;101071.81;108813;1273;37098;-77
2022/12/28 06:46:06;;;;;;;16.10;10.30;;;;;;;-0.18;90.22;101067.86;108851;1273;37349;-76
2022/12/28 06:48:39;;;;;;;;;;;;;;;-0.18;90.38;101058.95;108897;1256;38104;-74
2022/12/28 06:51:19;;;;;;;19.50;10.00;;;;;;;-0.17;90.46;101063.92;108863;1259;37114;-75
2022/12/28 06:53:55;;;;;;;19.10;11.10;;;;;;;-0.14;90.43;101068.26;108827;1261;37062;-75
2022/12/28 06:56:34;;;;;;;17.10;9.10;;;;;;;-0.15;90.42;101063.80;108873;1260;37464;-76
2022/12/28 06:59:11;;;;;;;16.70;10.10;;;;;;;-0.16;90.63;101060.00;108867;1256;38507;-75
2022/12/28 07:01:45;;;;;;;13.90;9.10;;;;;;;-0.14;90.59;101057.61;108903;1263;36521;-75
2022/12/28 07:04:25;;;;;;;19.20;9.30;;;;;;;-0.10;90.66;101056.00;108842;1255;36446;-75
2022/12/28 07:07:00;;;;;;;11.80;8.90;;;;;;;-0.06;90.69;101057.07;108909;1273;37254;-76
2022/12/28 07:09:35;;;;;;;18.20;11.00;;;;;;;-0.04;90.59;101054.20;108853;1272;38275;-76
2022/12/28 07:12:11;;;;;;;17.40;9.50;;;;;;;-0.03;90.67;101050.96;108874;1251;36603;-75
2022/12/28 07:14:46;;;;;;;17.40;9.30;;;;;;;0.01;90.97;101045.54;108832;1256;37380;-74
2022/12/28 07:17:23;;;;;;;17.30;10.20;;;;;;;0.06;90.82;101035.83;108872;1259;36357;-74
2022/12/28 07:19:58;;;;;;;16.00;9.50;;;;;;;0.13;90.95;101034.05;108155;1273;917085;-72
2022/12/28 07:22:39;;;;;;;17.00;9.80;;;;;;;0.20;90.79;101032.27;108875;1263;37120;-73
2022/12/28 07:25:15;;;;;;;14.30;9.90;;;;;;;0.27;90.88;101028.25;108799;1256;36127;-75
2022/12/28 07:27:56;;;;;;;15.00;10.00;;;;;;;0.33;90.92;101029.53;108838;1257;37493;-73
2022/12/28 07:30:36;;;;;;;18.00;10.50;;;;;;;0.39;90.78;101026.52;108823;1250;37124;-72
2022/12/28 07:33:13;;;;;;;;;;;;;;;0.46;90.83;101029.38;108864;1251;37908;-72
2022/12/28 07:35:50;;;;;;;15.40;9.70;;;;;;;0.53;90.96;101024.48;108869;1273;37143;-73
2022/12/28 07:38:25;;;;;;;18.70;9.80;;;;;;;0.62;90.94;101025.13;108845;1273;37034;-72
2022/12/28 07:41:08;;;;;;;17.00;10.00;;;;;;;0.74;90.85;101024.77;108816;1273;37029;-71
2022/12/28 07:43:43;;;;;;;18.80;11.20;;;;;;;0.81;90.66;101029.48;108873;1273;38388;-69
2022/12/28 07:46:19;;;;;;;17.20;10.30;;;;;;;0.85;90.36;101024.05;108888;1273;37687;-69
2022/12/28 07:48:57;;;;;;;17.10;10.20;;;;;;;0.89;90.36;101027.01;108832;1256;36984;-74
2022/12/28 07:51:32;;;;;;;11.90;8.90;;;;;;;0.95;90.34;101025.02;108834;1261;36419;-72
2022/12/28 07:54:06;;;;;;;16.30;9.40;;;;;;;1.05;90.55;101019.46;108821;1273;37253;-73
2022/12/28 07:56:45;;;;;;;16.40;10.10;;;;;;;1.16;90.41;101023.02;108878;1264;37488;-72
2022/12/28 07:59:22;;;;;;;14.30;9.70;;;;;;;1.23;89.94;101025.49;108821;1250;37056;-72
2022/12/28 08:01:56;;;;;;;15.80;10.10;;;;;;;1.24;89.53;101023.80;108874;1273;37023;-72
2022/12/28 08:04:31;;;;;;;13.80;9.80;;;;;;;1.26;89.66;101027.25;108848;1273;36500;-71
2022/12/28 08:07:06;;;;;;;15.90;9.60;;;;;;;1.33;89.69;101026.46;108864;1273;37116;-71
2022/12/28 08:09:43;;;;;;;16.90;10.50;;;;;;;1.39;89.47;101018.96;108833;1256;38886;-71
2022/12/28 08:12:20;;;;;;;15.70;10.40;;;;;;;1.44;89.31;101012.83;108831;1273;36339;-71
2022/12/28 08:14:56;;;;;;;17.00;10.90;;;;;;;1.49;89.33;101006.69;108824;1261;36969;-73
2022/12/28 08:17:33;;;;;;;17.30;10.60;;;;;;;1.53;88.91;101004.65;108837;1263;36676;-71
2022/12/28 08:20:10;;;;;;;15.70;10.20;;;;;;;1.55;89.04;101006.39;108824;1251;37129;-71
2022/12/28 08:22:45;;;;;;;14.90;9.90;;;;;;;1.60;89.05;101004.02;108847;1263;37302;-72
2022/12/28 08:25:19;;;;;;;15.60;9.90;;;;;;;1.68;88.93;101005.30;108867;1260;37167;-72
2022/12/28 08:27:56;;;;;;;16.00;10.70;;;;;;;1.79;89.19;101005.73;108861;1273;37549;-72
2022/12/28 08:30:30;;;;;;;14.50;10.00;;;;;;;1.85;88.58;101009.90;108699;1266;175064;-72
2022/12/28 08:33:04;;;;;;;13.90;9.80;;;;;;;1.95;89.04;101007.57;108790;1273;36949;-72
2022/12/28 08:35:39;;;;;;;16.80;10.60;;;;;;;2.05;88.64;101004.55;108809;1257;36980;-72
2022/12/28 08:38:18;;;;;;;14.50;10.20;;;;;;;2.10;88.29;101007.51;108780;1273;37110;-71
2022/12/28 08:40:59;;;;;;;14.90;9.40;;;;;;;2.15;88.17;101008.91;108839;1264;37202;-72
2022/12/28 08:43:33;;;;;;;16.40;10.30;;;;;;;2.21;88.00;101008.09;108846;1267;37638;-72
2022/12/28 08:46:16;;;;;;;15.40;9.90;;;;;;;2.27;87.98;101006.60;108797;1257;37026;-72
2022/12/28 08:48:58;;;;;;;19.20;11.80;;;;;;;2.33;87.88;101005.94;108821;1269;36521;-71
2022/12/28 08:51:38;;;;;;;15.40;11.30;;;;;;;2.36;87.46;101005.10;108841;1273;37361;-72
2022/12/28 08:54:16;;;;;;;18.70;10.10;;;;;;;2.42;87.72;101001.33;108827;1250;36984;-72
2022/12/28 08:56:51;;;;;;;15.40;9.90;;;;;;;2.52;87.92;101003.80;108854;1251;36976;-72
2022/12/28 08:59:27;;;;;;;14.60;10.80;;;;;;;2.67;87.98;100994.21;108788;1256;36163;-72
2022/12/28 09:02:05;;;;;;;16.70;10.60;;;;;;;2.81;87.53;100994.62;108839;1273;37058;-73
2022/12/28 09:04:39;;;;;;;16.20;10.60;;;;;;;2.94;87.60;100997.08;108797;1263;37065;-73
2022/12/28 09:07:23;;;;;;;17.30;10.50;;;;;;;3.01;87.10;100991.77;108869;1264;37112;-72
2022/12/28 09:10:00;;;;;;;15.60;9.50;;;;;;;3.07;87.06;100993.50;108842;1260;37386;-72
2022/12/28 09:12:36;;;;;;;14.20;9.40;;;;;;;3.13;86.43;100993.86;108893;1263;37050;-73
2022/12/28 09:15:14;;;;;;;14.80;9.80;;;;;;;3.23;86.34;100992.33;108813;1273;36716;-73
2022/12/28 09:17:49;;;;;;;15.20;10.20;;;;;;;3.31;85.90;100990.44;108765;1257;36938;-72
2022/12/28 09:20:23;;;;;;;14.00;9.80;;;;;;;3.38;86.01;100983.55;108796;1273;36502;-72
2022/12/28 09:22:58;;;;;;;16.00;9.90;;;;;;;3.46;85.79;100981.33;108829;1251;37145;-72
2022/12/28 09:25:32;;;;;;;15.00;9.30;;;;;;;3.52;85.43;100982.02;108836;1273;36344;-71
2022/12/28 09:28:09;;;;;;;15.80;9.70;;;;;;;3.54;84.99;100981.33;108864;1261;37622;-74
2022/12/28 09:30:48;;;;;;;14.40;8.60;;;;;;;3.55;84.72;100978.05;108836;1273;37279;-75
2022/12/28 09:36:22;;;;;;;12.70;7.90;;;;;;;3.69;85.27;100966.66;108838;1274;37424;-73
2022/12/28 09:38:57;;;;;;;13.50;7.80;;;;;;;3.77;84.69;100958.03;108806;1273;37131;-73
2022/12/28 09:41:33;;;;;;;10.50;7.60;;;;;;;3.83;84.46;100953.19;108824;1254;38764;-72
2022/12/28 09:44:47;;;;;;;13.70;8.20;;;;;;;3.86;83.47;100943.02;108850;1263;37171;-75
2022/12/28 09:47:31;;;;;;;12.30;6.70;;;;;;;3.94;83.99;100940.41;108695;1267;37245;-77
2022/12/28 09:50:31;;;;;;;14.20;6.80;;;;;;;4.01;83.71;100935.39;108855;1253;36940;-75
2022/12/28 09:53:39;;;;;;;9.90;6.50;;;;;;;4.06;82.60;100928.13;108825;1251;37786;-75
2022/12/28 09:56:27;;;;;;;10.90;6.20;;;;;;;4.13;82.57;100917.56;108497;1262;188215;-74
2022/12/28 09:59:04;;;;;;;10.70;6.30;;;;;;;4.20;82.28;100912.38;108850;1257;37286;-74
2022/12/28 10:01:39;;;;;;;9.20;6.30;;;;;;;4.25;81.92;100903.39;108844;1261;37863;-74
2022/12/28 10:04:14;;;;;;;12.90;7.00;;;;;;;4.28;81.92;100897.50;108842;1256;37327;-73
2022/12/28 10:06:50;;;;;;;10.90;7.10;;;;;;;4.34;81.85;100895.23;108758;1270;172918;-74
2022/12/28 10:09:28;;;;;;;13.90;6.30;;;;;;;4.38;81.60;100891.25;108857;1254;37359;-74
2022/12/28 10:12:12;;;;;;;10.40;5.60;;;;;;;4.46;81.22;100894.65;108903;1273;37248;-75
2022/12/28 10:14:48;;;;;;;9.60;5.80;;;;;;;4.58;81.48;100889.59;108846;1256;37121;-74
2022/12/28 10:17:29;;;;;;;10.60;5.70;;;;;;;4.71;80.81;100884.84;108857;1250;37005;-74
2022/12/28 10:20:08;;;;;;;9.60;5.30;;;;;;;4.81;80.50;100880.12;108856;1265;37018;-76
2022/12/28 10:22:49;;;;;;;11.40;6.00;;;;;;;4.89;80.61;100882.84;108854;1256;37354;-76
2022/12/28 10:25:25;;;;;;;8.90;5.80;;;;;;;4.93;79.48;100878.32;108896;1256;39103;-75
2022/12/28 10:28:01;;;;;;;9.50;5.20;;;;;;;4.95;79.27;100874.84;108850;1260;37615;-74
2022/12/28 10:30:46;;;;;;;9.70;4.90;;;;;;;5.00;78.81;100871.36;108869;1260;37552;-73
2022/12/28 10:33:24;;;;;;;8.80;5.40;;;;;;;5.01;78.64;100869.61;108881;1266;37224;-77
2022/12/28 10:36:03;;;;;;;10.60;6.10;;;;;;;5.05;78.82;100860.23;108890;1273;37479;-74
2022/12/28 10:38:41;;;;;;;8.50;5.20;;;;;;;5.09;79.15;100850.70;108873;1250;38260;-74
2022/12/28 10:41:16;;;;;;;9.00;5.00;;;;;;;5.15;78.48;100846.15;108841;1262;38081;-76
2022/12/28 10:44:07;;;;;;;8.90;5.10;;;;;;;5.18;77.65;100850.80;108837;1273;38335;-74
2022/12/28 10:46:57;;;;;;;9.50;4.60;;;;;;;5.20;77.18;100846.81;108929;1273;37000;-74
2022/12/28 10:49:38;;;;;;;12.10;6.10;;;;;;;5.20;76.13;100850.28;108900;1273;37111;-74
2022/12/28 10:52:24;;;;;;;8.40;5.40;;;;;;;5.16;75.81;100842.69;108895;1260;37486;-74
2022/12/28 10:54:59;;;;;;;9.80;5.50;;;;;;;5.13;76.11;100837.53;108878;1257;37302;-75
2022/12/28 10:57:42;;;;;;;9.00;5.80;;;;;;;5.11;75.99;100832.36;108884;1251;37168;-78
2022/12/28 11:00:38;;;;;;;11.50;5.80;;;;;;;5.07;75.09;100821.66;108822;1263;36317;-74
2022/12/28 11:03:26;;;;;;;11.20;5.60;;;;;;;5.00;74.76;100808.59;108842;1250;36998;-73
2022/12/28 11:10:34;;;;;;;12.00;6.40;;;;;;;4.81;75.23;100797.15;108270;1256;911539;-75
2022/12/28 11:13:19;;;;;;;8.90;5.60;;;;;;;4.78;74.63;100799.77;108814;1266;38334;-75
2022/12/28 11:16:00;;;;;;;9.20;5.40;;;;;;;4.74;74.00;100786.32;108873;1273;37567;-74
2022/12/28 11:18:36;;;;;;;8.80;5.80;;;;;;;4.75;74.76;100780.61;108869;1273;36147;-75
2022/12/28 11:21:20;;;;;;;8.30;4.70;;;;;;;4.80;74.62;100772.80;108840;1273;36947;-75
2022/12/28 11:23:58;;;;;;;11.80;5.00;;;;;;;4.81;73.91;100770.02;108882;1263;37207;-77
2022/12/28 11:26:44;;;;;;;10.40;5.30;;;;;;;4.81;74.29;100774.50;108806;1273;37138;-74
2022/12/28 11:29:20;;;;;;;8.90;5.40;;;;;;;4.81;74.42;100771.91;108881;1256;38211;-75
2022/12/28 11:32:00;;;;;;;8.60;5.00;;;;;;;4.81;74.71;100778.83;108908;1273;37476;-72
2022/12/28 11:34:35;;;;;;;9.10;5.80;;;;;;;4.80;74.58;100781.26;108916;1251;37072;-75
2022/12/28 11:37:17;;;;;;;10.60;5.60;;;;;;;4.77;74.08;100778.88;108838;1273;37090;-73
2022/12/28 11:39:55;;;;;;;12.40;6.70;;;;;;;4.74;74.02;100769.55;108842;1257;37653;-75
2022/12/28 11:42:57;;;;;;;9.90;5.30;;;;;;;4.72;74.17;100768.89;108855;1273;38197;-74
2022/12/28 11:45:58;;;;;;;11.30;5.80;;;;;;;4.71;74.06;100757.30;108860;1257;37065;-74
2022/12/28 11:48:58;;;;;;;9.10;5.60;;;;;;;4.77;74.30;100757.08;108838;1262;36020;-76
2022/12/28 11:51:36;;;;;;;9.10;5.70;;;;;;;4.79;74.10;100758.98;108814;1273;37052;-76
2022/12/28 11:54:53;;;;;;;11.40;5.80;;;;;;;4.79;74.00;100752.74;108867;1263;37252;-74
2022/12/28 11:57:46;;;;;;;11.70;5.90;;;;;;;4.80;73.91;100746.87;108865;1273;36588;-77
2022/12/28 12:00:55;;;;;;;8.60;5.60;;;;;;;4.76;73.48;100739.98;108785;1261;37241;-74
2022/12/28 12:04:15;;;;;;;10.70;6.40;;;;;;;4.74;74.16;100727.91;108843;1273;38267;-71
2022/12/28 12:07:42;;;;;;;8.80;5.70;;;;;;;4.74;74.38;100720.30;108773;1260;174909;-75
2022/12/28 12:10:40;;;;;;;10.30;6.00;;;;;;;4.73;74.42;100710.46;108815;1272;37501;-76
2022/12/28 12:13:50;;;;;;;10.10;6.70;;;;;;;4.73;74.16;100702.67;108796;1257;37067;-74
2022/12/28 12:16:27;;;;;;;12.30;6.60;;;;;;;4.75;74.06;100694.54;108310;1280;36709;-72
2022/12/28 12:19:07;;;;;;;9.90;6.20;;;;;;;4.77;74.09;100688.11;108811;1273;36004;-73
2022/12/28 12:21:45;;;;;;;10.40;6.40;;;;;;;4.80;73.82;100685.69;108819;1273;36961;-76
2022/12/28 12:24:25;;;;;;;10.20;5.70;;;;;;;4.82;74.23;100685.14;108818;1260;37008;-74
2022/12/28 12:27:04;;;;;;;13.00;6.90;;;;;;;4.82;73.92;100676.15;108853;1273;37467;-76
2022/12/28 12:29:43;;;;;;;10.30;6.80;;;;;;;4.82;74.04;100666.64;108747;1267;37183;-77
2022/12/28 12:32:23;;;;;;;12.70;6.80;;;;;;;4.81;73.92;100660.95;108853;1273;37031;-76
2022/12/28 12:35:00;;;;;;;11.40;6.40;;;;;;;4.79;73.76;100660.80;108819;1273;36991;-74
2022/12/28 12:37:43;;;;;;;9.90;6.40;;;;;;;4.74;73.80;100657.91;108816;1258;37062;-75
2022/12/28 12:40:53;;;;;;;12.10;6.20;;;;;;;4.71;73.81;100654.83;108792;1259;37995;-74
2022/12/28 12:43:43;;;;;;;11.10;6.70;;;;;;;4.69;73.84;100646.55;108813;1264;37004;-76
2022/12/28 12:47:10;;;;;;;10.60;6.10;;;;;;;4.68;73.70;100642.41;108763;1256;37086;-77
2022/12/28 12:50:15;;;;;;;10.10;6.20;;;;;;;4.67;74.07;100652.95;108810;1270;36981;-76